createdAt,value
2023-05-15T00:02:13.305Z,6.47
2023-05-15T00:04:40.631Z,6.80
2023-05-15T00:07:07.987Z,8.17
2023-05-15T00:09:34.752Z,7.97
2023-05-15T00:12:01.778Z,7.30
2023-05-15T00:14:28.544Z,8.20
2023-05-15T00:16:55.723Z,9.20
2023-05-15T00:19:22.948Z,9.70
2023-05-15T00:21:50.050Z,9.60
2023-05-15T00:24:16.933Z,9.77
2023-05-15T00:26:43.655Z,9.70
2023-05-15T00:29:10.725Z,10.73
2023-05-15T00:31:39.543Z,11.50
2023-05-15T00:34:06.519Z,10.97
2023-05-15T00:36:33.734Z,11.80
2023-05-15T00:39:00.653Z,13.20
2023-05-15T00:41:28.884Z,12.37
2023-05-15T00:43:56.105Z,12.63
2023-05-15T00:46:24.824Z,13.30
2023-05-15T00:48:52.149Z,13.27
2023-05-15T00:51:18.898Z,12.20
2023-05-15T00:53:45.984Z,12.83
2023-05-15T00:56:12.836Z,12.33
2023-05-15T00:58:40.103Z,12.73
2023-05-15T01:01:08.493Z,13.57
2023-05-15T01:03:37.466Z,13.20
2023-05-15T01:06:04.477Z,12.80
2023-05-15T01:08:47.336Z,12.83
2023-05-15T01:11:16.200Z,12.47
2023-05-15T01:13:43.882Z,12.50
2023-05-15T01:16:11.288Z,13.30
2023-05-15T01:18:39.013Z,12.97
2023-05-15T01:21:40.966Z,12.47
2023-05-15T01:24:45.697Z,12.70
2023-05-15T01:27:25.272Z,12.30
2023-05-15T01:30:12.597Z,13.23
2023-05-15T01:32:51.199Z,12.30
2023-05-15T01:35:28.619Z,11.90
2023-05-15T01:38:15.635Z,12.20
2023-05-15T01:40:44.979Z,11.60
2023-05-15T01:43:14.222Z,12.57
2023-05-15T01:45:43.180Z,12.43
2023-05-15T01:48:13.211Z,12.20
2023-05-15T01:50:43.060Z,12.63
2023-05-15T01:53:11.406Z,12.67
2023-05-15T01:55:40.273Z,12.80
2023-05-15T01:58:07.377Z,12.63
2023-05-15T02:00:35.919Z,12.53
2023-05-15T02:03:05.951Z,12.80
2023-05-15T02:05:34.648Z,12.43
2023-05-15T02:08:03.652Z,12.07
2023-05-15T02:10:31.955Z,12.30
2023-05-15T02:13:00.102Z,12.50
2023-05-15T02:15:28.411Z,12.20
2023-05-15T02:17:55.593Z,12.63
2023-05-15T02:20:22.494Z,11.97
2023-05-15T02:22:49.689Z,11.30
2023-05-15T02:25:16.437Z,10.47
2023-05-15T02:27:53.766Z,11.07
2023-05-15T02:30:33.204Z,9.93
2023-05-15T02:33:34.921Z,10.03
2023-05-15T02:36:16.958Z,10.53
2023-05-15T02:38:53.164Z,11.17
2023-05-15T02:41:22.032Z,10.93
2023-05-15T02:43:53.163Z,10.57
2023-05-15T02:46:21.740Z,10.73
2023-05-15T02:48:49.352Z,10.57
2023-05-15T02:51:16.135Z,10.27
2023-05-15T02:53:43.279Z,10.30
2023-05-15T02:56:10.338Z,10.70
2023-05-15T02:58:39.340Z,10.47
2023-05-15T03:01:06.266Z,9.67
2023-05-15T03:03:33.417Z,10.50
2023-05-15T03:06:01.113Z,9.70
2023-05-15T03:08:28.808Z,10.57
2023-05-15T03:10:55.756Z,10.17
2023-05-15T03:13:22.971Z,9.87
2023-05-15T03:15:50.076Z,8.80
2023-05-15T03:18:19.138Z,9.40
2023-05-15T03:20:48.532Z,9.57
2023-05-15T03:23:15.510Z,9.73
2023-05-15T03:25:42.370Z,10.33
2023-05-15T03:28:09.881Z,8.60
2023-05-15T03:30:36.598Z,9.67
2023-05-15T03:33:04.160Z,8.77
2023-05-15T03:35:32.620Z,9.30
2023-05-15T03:37:59.418Z,9.70
2023-05-15T03:40:26.193Z,9.17
2023-05-15T03:42:53.867Z,9.77
2023-05-15T03:45:21.324Z,9.40
2023-05-15T03:47:49.277Z,9.17
2023-05-15T03:50:16.390Z,10.00
2023-05-15T03:52:43.328Z,9.00
2023-05-15T03:55:10.543Z,8.67
2023-05-15T03:57:37.418Z,9.27
2023-05-15T04:00:10.228Z,10.00
2023-05-15T04:02:41.477Z,9.53
2023-05-15T04:05:09.634Z,9.10
2023-05-15T04:07:37.296Z,8.80
2023-05-15T04:10:04.645Z,9.50
2023-05-15T04:12:35.585Z,9.00
2023-05-15T04:15:15.710Z,9.40
2023-05-15T04:17:43.497Z,9.03
2023-05-15T04:20:14.326Z,8.80
2023-05-15T04:22:42.680Z,9.60
2023-05-15T04:25:11.067Z,10.03
2023-05-15T04:27:38.770Z,9.57
2023-05-15T04:30:06.916Z,9.10
2023-05-15T04:32:34.277Z,9.80
2023-05-15T04:35:01.469Z,10.03
2023-05-15T04:37:29.007Z,10.33
2023-05-15T04:39:55.813Z,11.43
2023-05-15T04:42:22.539Z,9.70
2023-05-15T04:44:49.660Z,10.03
2023-05-15T04:47:16.769Z,10.60
2023-05-15T04:49:43.560Z,10.50
2023-05-15T04:52:10.732Z,10.17
2023-05-15T04:54:37.452Z,9.77
2023-05-15T04:57:04.646Z,10.27
2023-05-15T04:59:31.452Z,10.17
2023-05-15T05:01:58.465Z,9.50
2023-05-15T05:04:26.264Z,9.57
2023-05-15T05:06:52.967Z,10.80
2023-05-15T05:09:20.169Z,9.77
2023-05-15T05:11:47.577Z,9.23
2023-05-15T05:14:15.715Z,10.37
2023-05-15T05:16:45.171Z,9.23
2023-05-15T05:19:12.307Z,9.00
2023-05-15T05:21:39.528Z,9.50
2023-05-15T05:24:06.360Z,9.50
2023-05-15T05:26:33.090Z,9.30
2023-05-15T05:28:59.809Z,9.50
2023-05-15T05:31:26.586Z,10.10
2023-05-15T05:33:53.378Z,8.77
2023-05-15T05:36:20.485Z,10.00
2023-05-15T05:38:47.256Z,9.37
2023-05-15T05:41:14.048Z,9.57
2023-05-15T05:43:41.283Z,9.37
2023-05-15T05:46:08.089Z,9.60
2023-05-15T05:48:35.124Z,9.80
2023-05-15T05:51:02.029Z,9.53
2023-05-15T05:53:28.884Z,8.77
2023-05-15T05:55:56.772Z,8.50
2023-05-15T05:58:25.940Z,9.67
2023-05-15T06:00:53.763Z,9.13
2023-05-15T06:03:21.368Z,9.00
2023-05-15T06:05:48.757Z,9.07
2023-05-15T06:08:15.896Z,9.53
2023-05-15T06:10:42.821Z,9.63
2023-05-15T06:13:10.279Z,10.63
2023-05-15T06:15:37.520Z,10.17
2023-05-15T06:18:04.531Z,8.87
2023-05-15T06:20:31.460Z,9.73
2023-05-15T06:22:58.182Z,9.03
2023-05-15T06:25:25.672Z,9.27
2023-05-15T06:27:52.365Z,9.10
2023-05-15T06:30:19.084Z,9.07
2023-05-15T06:32:46.178Z,8.93
2023-05-15T06:35:13.125Z,8.70
2023-05-15T06:37:40.701Z,8.97
2023-05-15T06:40:08.015Z,8.67
2023-05-15T06:42:34.816Z,8.13
2023-05-15T06:45:01.678Z,8.50
2023-05-15T06:47:28.505Z,7.67
2023-05-15T06:49:55.914Z,8.57
2023-05-15T06:52:22.687Z,8.87
2023-05-15T06:54:49.725Z,8.15
2023-05-15T06:57:16.512Z,7.95
2023-05-15T06:59:43.469Z,8.03
2023-05-15T07:02:11.084Z,8.00
2023-05-15T07:04:37.913Z,7.93
2023-05-15T07:07:05.098Z,7.82
2023-05-15T07:09:31.893Z,8.10
2023-05-15T07:11:58.667Z,7.63
2023-05-15T07:14:26.167Z,7.73
2023-05-15T07:16:52.921Z,7.72
2023-05-15T07:19:22.565Z,7.53
2023-05-15T07:21:49.315Z,7.40
2023-05-15T07:24:16.022Z,8.05
2023-05-15T07:26:54.259Z,7.20
2023-05-15T07:29:26.271Z,7.13
2023-05-15T07:31:53.554Z,6.60
2023-05-15T07:34:20.881Z,6.80
2023-05-15T07:36:47.523Z,7.57
2023-05-15T07:39:14.429Z,7.05
2023-05-15T07:41:41.440Z,7.05
2023-05-15T07:44:08.353Z,6.70
2023-05-15T07:46:35.579Z,6.43
2023-05-15T07:49:03.583Z,5.70
2023-05-15T07:51:30.469Z,5.38
2023-05-15T07:53:57.899Z,5.40
2023-05-15T07:56:25.243Z,5.45
2023-05-15T07:58:54.144Z,4.38
2023-05-15T08:01:20.904Z,4.43
2023-05-15T08:03:47.748Z,4.22
2023-05-15T08:06:14.913Z,3.58
2023-05-15T08:08:42.799Z,4.05
2023-05-15T08:11:09.535Z,3.25
2023-05-15T08:13:36.697Z,3.88
2023-05-15T08:16:03.815Z,3.60
2023-05-15T08:18:30.790Z,3.50
2023-05-15T08:20:58.686Z,3.63
2023-05-15T08:23:26.696Z,3.42
2023-05-15T08:25:53.537Z,3.70
2023-05-15T08:28:20.285Z,3.35
2023-05-15T08:30:47.332Z,3.33
2023-05-15T08:33:14.321Z,3.22
2023-05-15T08:35:42.196Z,3.00
2023-05-15T08:38:09.193Z,3.30
2023-05-15T08:40:39.812Z,2.75
2023-05-15T08:43:15.767Z,2.90
2023-05-15T08:45:43.916Z,3.20
2023-05-15T08:48:16.328Z,2.70
2023-05-15T08:50:44.616Z,2.75
2023-05-15T08:53:13.685Z,2.88
2023-05-15T08:55:42.045Z,2.10
2023-05-15T08:58:09.807Z,2.50
2023-05-15T09:00:37.723Z,2.50
2023-05-15T09:03:05.116Z,2.80
2023-05-15T09:05:32.147Z,2.70
2023-05-15T09:08:02.148Z,2.70
2023-05-15T09:10:29.878Z,2.42
2023-05-15T09:12:58.493Z,2.40
2023-05-15T09:15:25.757Z,2.40
2023-05-15T09:17:53.290Z,2.00
2023-05-15T09:20:29.979Z,2.25
2023-05-15T09:22:58.820Z,2.95
2023-05-15T09:25:39.853Z,3.05
2023-05-15T09:28:09.032Z,2.42
2023-05-15T09:30:39.426Z,2.63
2023-05-15T09:33:06.666Z,2.55
2023-05-15T09:35:39.169Z,2.20
2023-05-15T09:38:12.462Z,2.47
2023-05-15T09:40:43.318Z,2.70
2023-05-15T09:43:12.656Z,3.00
2023-05-15T09:45:39.538Z,3.60
2023-05-15T09:48:08.251Z,3.80
2023-05-15T09:50:37.217Z,4.00
2023-05-15T09:53:05.236Z,4.00
2023-05-15T09:55:36.205Z,3.55
2023-05-15T09:58:13.109Z,3.58
2023-05-15T10:00:47.264Z,3.83
2023-05-15T10:03:15.453Z,3.78
2023-05-15T10:05:44.486Z,3.70
2023-05-15T10:08:12.459Z,3.55
2023-05-15T10:10:39.823Z,3.60
2023-05-15T10:13:08.517Z,3.63
2023-05-15T10:15:35.770Z,3.08
2023-05-15T10:18:05.000Z,2.90
2023-05-15T10:20:35.656Z,2.17
2023-05-15T10:23:05.145Z,1.92
2023-05-15T10:25:54.422Z,1.70
2023-05-15T10:28:22.635Z,1.98
2023-05-15T10:30:49.580Z,2.20
2023-05-15T10:33:16.985Z,1.70
2023-05-15T10:35:46.960Z,2.35
2023-05-15T10:38:15.962Z,1.95
2023-05-15T10:40:44.562Z,1.88
2023-05-15T10:43:14.691Z,2.40
2023-05-15T10:45:41.957Z,2.28
2023-05-15T10:48:12.239Z,2.17
2023-05-15T10:50:40.189Z,3.03
2023-05-15T10:53:09.286Z,2.80
2023-05-15T10:55:36.981Z,2.47
2023-05-15T10:58:09.719Z,2.92
2023-05-15T11:00:44.862Z,3.15
2023-05-15T11:03:16.697Z,3.40
2023-05-15T11:06:13.579Z,3.25
2023-05-15T11:08:45.357Z,2.92
2023-05-15T11:12:00.509Z,3.65
2023-05-15T11:14:29.706Z,2.90
2023-05-15T11:16:58.743Z,2.90
2023-05-15T11:19:28.742Z,3.20
2023-05-15T11:22:17.228Z,3.05
2023-05-15T11:24:54.660Z,3.60
2023-05-15T11:27:31.961Z,3.35
2023-05-15T11:30:05.008Z,3.47
2023-05-15T11:32:40.355Z,3.70
2023-05-15T11:35:22.873Z,3.38
2023-05-15T11:37:54.917Z,3.10
2023-05-15T11:40:23.364Z,2.95
2023-05-15T11:43:01.605Z,2.80
2023-05-15T11:45:31.343Z,2.78
2023-05-15T11:48:02.505Z,2.80
2023-05-15T11:50:32.582Z,3.30
2023-05-15T11:53:04.127Z,2.97
2023-05-15T11:55:33.320Z,3.03
2023-05-15T11:58:01.533Z,3.20
2023-05-15T12:00:29.177Z,3.45
2023-05-15T12:02:56.691Z,2.55
2023-05-15T12:05:24.569Z,2.42
2023-05-15T12:07:51.963Z,2.95
2023-05-15T12:10:18.788Z,2.42
2023-05-15T12:12:46.626Z,2.58
2023-05-15T12:15:15.578Z,2.63
2023-05-15T12:17:44.130Z,2.80
2023-05-15T12:20:16.078Z,2.35
2023-05-15T12:22:42.828Z,2.65
2023-05-15T12:25:12.482Z,2.20
2023-05-15T12:27:40.061Z,2.13
2023-05-15T12:30:07.936Z,2.55
2023-05-15T12:32:36.630Z,2.72
2023-05-15T12:35:04.957Z,2.83
2023-05-15T12:37:36.001Z,2.90
2023-05-15T12:40:11.741Z,3.05
2023-05-15T12:42:39.915Z,3.10
2023-05-15T12:45:14.864Z,3.10
2023-05-15T12:47:44.171Z,2.67
2023-05-15T12:50:16.378Z,2.53
2023-05-15T12:53:03.571Z,2.13
2023-05-15T12:55:35.340Z,2.75
2023-05-15T12:58:07.207Z,2.90
2023-05-15T13:00:36.231Z,3.20
2023-05-15T13:03:04.292Z,3.05
2023-05-15T13:05:35.682Z,2.83
2023-05-15T13:08:04.286Z,3.25
2023-05-15T13:10:36.784Z,2.80
2023-05-15T13:13:03.866Z,3.17
2023-05-15T13:15:35.411Z,2.88
2023-05-15T13:18:11.412Z,2.65
2023-05-15T13:20:46.650Z,3.10
2023-05-15T13:23:19.183Z,3.28
2023-05-15T13:25:48.552Z,3.03
2023-05-15T13:28:16.370Z,3.25
2023-05-15T13:30:43.404Z,3.33
2023-05-15T13:33:11.928Z,3.17
2023-05-15T13:35:40.258Z,3.45
2023-05-15T13:38:10.354Z,3.30
2023-05-15T13:40:38.316Z,3.40
2023-05-15T13:43:06.842Z,3.35
2023-05-15T13:45:34.000Z,3.58
2023-05-15T13:48:01.861Z,3.03
2023-05-15T13:50:28.786Z,3.75
2023-05-15T13:52:56.104Z,3.20
2023-05-15T13:55:23.401Z,3.00
2023-05-15T13:57:51.371Z,2.80
2023-05-15T14:00:19.316Z,3.85
2023-05-15T14:02:46.948Z,3.25
2023-05-15T14:05:15.808Z,3.03
2023-05-15T14:07:42.863Z,3.00
2023-05-15T14:10:11.356Z,2.53
2023-05-15T14:12:38.504Z,2.30
2023-05-15T14:15:05.972Z,2.47
2023-05-15T14:17:33.010Z,3.15
2023-05-15T14:20:00.979Z,6.43
2023-05-15T14:22:27.798Z,5.47
2023-05-15T14:24:54.876Z,4.53
2023-05-15T14:27:21.596Z,3.05
2023-05-15T14:29:49.490Z,3.03
2023-05-15T14:32:17.523Z,4.38
2023-05-15T14:34:44.741Z,2.92
2023-05-15T14:37:12.607Z,2.75
2023-05-15T14:39:39.411Z,2.42
2023-05-15T14:42:06.945Z,2.40
2023-05-15T14:44:34.822Z,2.70
2023-05-15T14:47:10.396Z,2.75
2023-05-15T14:49:37.895Z,2.42
2023-05-15T14:52:08.226Z,2.40
2023-05-15T14:54:35.916Z,1.90
2023-05-15T14:57:02.693Z,1.90
2023-05-15T14:59:29.686Z,2.20
2023-05-15T15:01:56.761Z,2.17
2023-05-15T15:04:23.553Z,2.20
2023-05-15T15:06:50.467Z,1.85
2023-05-15T15:09:21.444Z,1.83
2023-05-15T15:11:48.936Z,1.85
2023-05-15T15:14:16.809Z,2.00
2023-05-15T15:16:44.344Z,2.20
2023-05-15T15:19:11.685Z,1.90
2023-05-15T15:21:38.596Z,2.15
2023-05-15T15:24:05.835Z,2.03
2023-05-15T15:26:33.566Z,2.40
2023-05-15T15:29:02.125Z,1.85
2023-05-15T15:31:30.308Z,2.45
2023-05-15T15:33:58.907Z,2.30
2023-05-15T15:36:26.396Z,3.00
2023-05-15T15:38:53.318Z,2.05
2023-05-15T15:41:23.661Z,2.35
2023-05-15T15:43:50.731Z,2.17
2023-05-15T15:46:18.591Z,2.30
2023-05-15T15:48:45.526Z,2.30
2023-05-15T15:51:12.568Z,11.20
2023-05-15T15:53:39.292Z,3.60
2023-05-15T15:56:07.639Z,2.70
2023-05-15T15:58:34.518Z,3.35
2023-05-15T16:01:03.706Z,2.55
2023-05-15T16:03:32.285Z,2.35
2023-05-15T16:06:00.296Z,1.98
2023-05-15T16:08:27.536Z,2.38
2023-05-15T16:10:55.007Z,2.50
2023-05-15T16:13:21.847Z,2.20
2023-05-15T16:15:49.725Z,3.93
2023-05-15T16:18:17.685Z,3.10
2023-05-15T16:20:44.556Z,5.63
2023-05-15T16:23:15.060Z,3.00
2023-05-15T16:25:43.325Z,2.80
2023-05-15T16:28:10.271Z,2.33
2023-05-15T16:30:48.134Z,5.55
2023-05-15T16:33:18.816Z,10.88
2023-05-15T16:35:47.619Z,7.22
2023-05-15T16:38:14.718Z,2.95
2023-05-15T16:40:41.626Z,2.60
2023-05-15T16:43:08.501Z,2.90
2023-05-15T16:45:35.501Z,3.03
2023-05-15T16:48:03.238Z,1.80
2023-05-15T16:50:33.057Z,2.72
2023-05-15T16:52:59.887Z,2.00
2023-05-15T16:55:26.938Z,2.30
2023-05-15T16:57:54.073Z,2.35
2023-05-15T17:00:21.535Z,2.10
2023-05-15T17:02:50.155Z,2.00
2023-05-15T17:05:18.096Z,1.85
2023-05-15T17:07:45.304Z,2.22
2023-05-15T17:10:13.237Z,2.17
2023-05-15T17:12:40.464Z,2.50
2023-05-15T17:15:07.895Z,2.42
2023-05-15T17:17:34.920Z,2.35
2023-05-15T17:20:03.589Z,2.42
2023-05-15T17:22:30.593Z,12.90
2023-05-15T17:24:57.538Z,9.00
2023-05-15T17:27:24.614Z,4.03
2023-05-15T17:29:52.179Z,4.80
2023-05-15T17:32:20.663Z,3.20
2023-05-15T17:34:48.366Z,2.53
2023-05-15T17:37:15.268Z,2.33
2023-05-15T17:39:42.770Z,2.20
2023-05-15T17:42:09.774Z,2.25
2023-05-15T17:44:37.177Z,2.40
2023-05-15T17:47:05.906Z,2.55
2023-05-15T17:49:34.671Z,3.88
2023-05-15T17:52:01.494Z,7.45
2023-05-15T17:54:28.859Z,5.83
2023-05-15T17:56:55.598Z,3.53
2023-05-15T17:59:22.629Z,4.43
2023-05-15T18:01:51.190Z,4.17
2023-05-15T18:04:18.890Z,2.70
2023-05-15T18:06:45.695Z,2.80
2023-05-15T18:09:12.902Z,3.77
2023-05-15T18:11:39.692Z,3.07
2023-05-15T18:14:06.714Z,3.10
2023-05-15T18:16:35.120Z,2.67
2023-05-15T18:19:01.919Z,2.60
2023-05-15T18:21:29.114Z,3.00
2023-05-15T18:23:56.104Z,3.00
2023-05-15T18:26:23.099Z,3.33
2023-05-15T18:28:50.569Z,2.97
2023-05-15T18:31:17.748Z,2.87
2023-05-15T18:33:45.816Z,2.90
2023-05-15T18:36:12.693Z,2.70
2023-05-15T18:38:39.743Z,2.63
2023-05-15T18:41:06.695Z,3.13
2023-05-15T18:43:34.320Z,3.13
2023-05-15T18:46:01.200Z,6.27
2023-05-15T18:48:28.538Z,4.03
2023-05-15T18:50:55.921Z,3.17
2023-05-15T18:53:23.122Z,3.77
2023-05-15T18:55:50.787Z,4.97
2023-05-15T18:58:17.635Z,5.10
2023-05-15T19:00:44.981Z,4.40
2023-05-15T19:03:12.301Z,4.57
2023-05-15T19:05:39.096Z,3.50
2023-05-15T19:08:07.326Z,5.20
2023-05-15T19:10:34.855Z,3.90
2023-05-15T19:13:01.985Z,3.73
2023-05-15T19:15:28.904Z,3.80
2023-05-15T19:17:55.964Z,4.20
2023-05-15T19:20:23.168Z,3.63
2023-05-15T19:22:51.330Z,4.53
2023-05-15T19:25:20.147Z,4.60
2023-05-15T19:27:46.938Z,4.27
2023-05-15T19:30:14.114Z,4.10
2023-05-15T19:32:41.291Z,4.07
2023-05-15T19:35:09.081Z,4.13
2023-05-15T19:37:36.548Z,4.17
2023-05-15T19:40:05.157Z,4.33
2023-05-15T19:42:31.946Z,4.10
2023-05-15T19:44:58.932Z,4.50
2023-05-15T19:47:26.882Z,3.90
2023-05-15T19:49:54.083Z,3.50
2023-05-15T19:52:21.587Z,3.77
2023-05-15T19:54:48.679Z,4.13
2023-05-15T19:57:16.323Z,4.00
2023-05-15T19:59:43.086Z,3.80
2023-05-15T20:02:11.230Z,4.03
2023-05-15T20:04:39.120Z,4.60
2023-05-15T20:07:07.226Z,4.53
2023-05-15T20:09:36.770Z,4.80
2023-05-15T20:12:07.695Z,4.57
2023-05-15T20:14:35.172Z,4.40
2023-05-15T20:17:02.132Z,3.97
2023-05-15T20:19:31.511Z,4.10
2023-05-15T20:21:58.287Z,4.33
2023-05-15T20:24:26.359Z,4.90
2023-05-15T20:26:53.228Z,4.07
2023-05-15T20:29:21.331Z,4.13
2023-05-15T20:31:48.208Z,3.50
2023-05-15T20:34:15.104Z,3.83
2023-05-15T20:36:42.534Z,3.93
2023-05-15T20:39:09.884Z,3.70
2023-05-15T20:41:37.698Z,3.60
2023-05-15T20:44:05.297Z,4.27
2023-05-15T20:46:32.290Z,4.73
2023-05-15T20:48:59.230Z,4.27
2023-05-15T20:51:26.199Z,3.97
2023-05-15T20:53:53.114Z,4.80
2023-05-15T20:56:20.703Z,6.03
2023-05-15T20:58:47.546Z,5.23
2023-05-15T21:01:16.156Z,4.50
2023-05-15T21:03:43.333Z,4.77
2023-05-15T21:06:10.248Z,7.17
2023-05-15T21:08:37.157Z,4.60
2023-05-15T21:11:03.918Z,4.60
2023-05-15T21:13:30.993Z,4.83
2023-05-15T21:15:57.701Z,5.43
2023-05-15T21:18:25.018Z,7.33
2023-05-15T21:20:53.018Z,5.73
2023-05-15T21:23:21.792Z,5.43
2023-05-15T21:25:48.480Z,9.10
2023-05-15T21:28:15.961Z,27.83
2023-05-15T21:30:42.952Z,17.10
2023-05-15T21:33:10.246Z,9.87
2023-05-15T21:35:38.126Z,17.70
2023-05-15T21:38:06.103Z,10.30
2023-05-15T21:40:33.077Z,10.33
2023-05-15T21:43:00.207Z,4.40
2023-05-15T21:45:26.920Z,4.10
2023-05-15T21:47:53.775Z,10.13
2023-05-15T21:50:21.086Z,7.63
2023-05-15T21:52:51.153Z,7.70
2023-05-15T21:55:18.596Z,5.67
2023-05-15T21:57:45.476Z,7.47
2023-05-15T22:00:12.516Z,7.83
2023-05-15T22:02:39.285Z,5.23
2023-05-15T22:05:07.349Z,5.40
2023-05-15T22:07:34.081Z,4.73
2023-05-15T22:10:03.132Z,4.60
2023-05-15T22:12:30.365Z,4.70
2023-05-15T22:14:59.461Z,3.93
2023-05-15T22:17:29.203Z,3.93
2023-05-15T22:20:07.901Z,3.73
2023-05-15T22:22:36.016Z,4.00
2023-05-15T22:25:03.421Z,3.60
2023-05-15T22:27:30.631Z,3.57
2023-05-15T22:29:57.626Z,3.80
2023-05-15T22:32:24.717Z,3.70
2023-05-15T22:34:51.689Z,4.20
2023-05-15T22:37:18.446Z,4.10
2023-05-15T22:39:45.850Z,5.07
2023-05-15T22:42:12.616Z,3.60
2023-05-15T22:44:39.346Z,4.27
2023-05-15T22:47:06.801Z,4.13
2023-05-15T22:49:33.861Z,4.33
2023-05-15T22:52:00.968Z,4.60
2023-05-15T22:54:27.686Z,4.50
2023-05-15T22:56:54.751Z,3.90
2023-05-15T22:59:22.039Z,4.10
2023-05-15T23:01:49.721Z,4.13
2023-05-15T23:04:17.660Z,8.27
2023-05-15T23:06:44.559Z,4.47
2023-05-15T23:09:11.841Z,4.03
2023-05-15T23:11:38.796Z,4.60
2023-05-15T23:14:05.755Z,5.37
2023-05-15T23:16:32.474Z,4.37
2023-05-15T23:18:59.762Z,3.83
2023-05-15T23:21:27.065Z,4.37
2023-05-15T23:23:53.892Z,4.00
2023-05-15T23:26:20.959Z,4.07
2023-05-15T23:28:47.777Z,3.80
2023-05-15T23:31:14.675Z,4.00
2023-05-15T23:33:41.574Z,4.20
2023-05-15T23:36:08.938Z,3.73
2023-05-15T23:38:36.176Z,3.97
2023-05-15T23:41:03.026Z,4.00
2023-05-15T23:43:29.842Z,4.57
2023-05-15T23:45:56.675Z,3.50
2023-05-15T23:48:23.774Z,3.60
2023-05-15T23:50:52.440Z,3.33
2023-05-15T23:53:19.321Z,4.43
2023-05-15T23:55:46.099Z,4.03
2023-05-15T23:58:12.962Z,4.00
